Time;durP1;ratioP1;P1;durP2;ratioP2;P2;SDS_P1;SDS_P2;PMS_P1;PMS_P2;Temp;Humidity;BMP_temperature;BMP_pressure;BME280_temperature;BME280_humidity;BME280_pressure;Samples;Min_cycle;Max_cycle;Signal;HPM_P1;HPM_P2
2023/03/06 08:48:47;;;;;;;21.27;12.40;;;;;;;3.89;90.96;97855.56;5169442;27;20581;-81
2023/03/06 08:51:16;;;;;;;20.03;12.63;;;;;;;4.58;88.10;97855.38;5167551;27;40988;-77
2023/03/06 08:53:45;;;;;;;16.97;12.30;;;;;;;5.32;82.93;97868.69;5164073;27;42040;-78
2023/03/06 08:56:17;;;;;;;17.13;10.33;;;;;;;5.82;79.08;97893.81;5149902;27;42822;-77
2023/03/06 08:58:44;;;;;;;15.60;11.57;;;;;;;6.11;76.51;97895.59;5147274;27;42322;-80
2023/03/06 09:01:15;;;;;;;17.20;11.80;;;;;;;6.32;74.95;97903.97;5150165;27;39919;-78
2023/03/06 09:03:43;;;;;;;14.53;10.60;;;;;;;6.48;73.40;97909.16;5147852;27;41506;-79
2023/03/06 09:06:13;;;;;;;12.03;9.87;;;;;;;6.67;73.04;97901.84;5132487;27;42100;-90
2023/03/06 09:08:42;;;;;;;17.27;10.77;;;;;;;6.83;72.21;97905.19;5132648;27;41264;-82
2023/03/06 09:11:11;;;;;;;14.97;11.30;;;;;;;6.87;70.85;97894.47;5132653;27;39101;-81
2023/03/06 09:13:39;;;;;;;18.83;11.47;;;;;;;6.94;70.13;97908.91;5150008;27;41762;-81
2023/03/06 09:16:07;;;;;;;15.17;10.57;;;;;;;7.01;69.86;97902.34;5151119;27;43576;-79
2023/03/06 09:18:35;;;;;;;14.67;10.57;;;;;;;7.15;70.06;97897.06;5150594;27;42312;-81
2023/03/06 09:21:03;;;;;;;13.90;10.43;;;;;;;7.24;68.87;97895.63;5132800;27;38874;-82
2023/03/06 09:23:33;;;;;;;16.83;10.17;;;;;;;7.41;67.61;97904.13;5149091;27;40832;-81
2023/03/06 09:26:02;;;;;;;16.13;10.37;;;;;;;7.55;67.20;97904.03;5149839;27;43638;-81
2023/03/06 09:28:29;;;;;;;14.70;10.63;;;;;;;7.83;66.60;97912.78;5149246;27;42575;-81
2023/03/06 09:30:57;;;;;;;13.60;10.47;;;;;;;7.91;65.94;97905.22;5133487;27;40091;-83
2023/03/06 09:33:25;;;;;;;14.63;10.40;;;;;;;8.05;65.37;97920.94;5149443;27;40609;-82
2023/03/06 09:35:54;;;;;;;14.20;9.73;;;;;;;8.13;64.40;97921.28;5153217;27;41673;-81
2023/03/06 09:38:24;;;;;;;13.60;9.20;;;;;;;8.21;64.04;97905.78;5142106;27;41056;-80
2023/03/06 09:41:04;;;;;;;11.30;9.00;;;;;;;8.51;62.49;97910.78;5150122;27;41211;-80
2023/03/06 09:43:36;;;;;;;13.43;9.83;;;;;;;9.34;61.89;97916.31;5149250;27;40756;-82
2023/03/06 09:46:15;;;;;;;12.97;9.00;;;;;;;10.48;58.66;97925.44;5149759;27;41655;-81
2023/03/06 09:48:53;;;;;;;12.97;8.87;;;;;;;11.33;54.76;97956.63;5131708;27;42020;-81
2023/03/06 09:51:28;;;;;;;11.50;8.97;;;;;;;11.75;54.31;97947.03;5148945;27;38963;-80
2023/03/06 09:54:05;;;;;;;11.03;9.63;;;;;;;12.09;53.62;97954.88;5131960;27;40602;-79
2023/03/06 09:56:36;;;;;;;10.27;8.47;;;;;;;12.00;53.01;97950.31;5131493;27;43787;-81
2023/03/06 09:59:12;;;;;;;10.67;8.57;;;;;;;11.97;50.58;97953.25;5140993;27;40881;-82
2023/03/06 10:01:42;;;;;;;10.10;8.63;;;;;;;11.88;51.51;97963.63;5132252;27;40911;-81
2023/03/06 10:04:24;;;;;;;10.03;8.33;;;;;;;11.64;51.33;97960.28;5134579;27;42674;-78
2023/03/06 10:06:57;;;;;;;9.90;8.03;;;;;;;11.43;50.92;97964.69;5116969;27;42233;-78
2023/03/06 10:09:28;;;;;;;10.10;8.50;;;;;;;11.11;51.29;97962.81;5133291;27;42319;-78
2023/03/06 10:12:02;;;;;;;9.47;8.47;;;;;;;10.85;50.94;97961.34;5132203;27;39945;-81
2023/03/06 10:14:37;;;;;;;11.13;9.33;;;;;;;10.61;51.75;97950.00;5117840;27;42020;-84
2023/03/06 10:17:06;;;;;;;10.40;8.50;;;;;;;10.39;51.31;97948.97;5132615;27;43566;-82
2023/03/06 10:19:36;;;;;;;11.93;9.43;;;;;;;10.47;51.88;97966.09;5134972;27;42264;-82
2023/03/06 10:22:12;;;;;;;10.57;9.20;;;;;;;10.32;52.29;97931.91;5135769;27;39683;-82
2023/03/06 10:24:50;;;;;;;9.93;8.43;;;;;;;10.38;51.92;97957.06;5117529;27;40666;-84
2023/03/06 10:27:39;;;;;;;11.90;9.63;;;;;;;10.34;51.79;97964.38;5132813;27;43756;-81
2023/03/06 10:30:23;;;;;;;12.17;9.50;;;;;;;10.19;51.80;97956.75;5117642;27;42167;-83
2023/03/06 10:32:56;;;;;;;10.10;8.20;;;;;;;10.09;52.23;97944.19;5133612;27;39853;-81
2023/03/06 10:35:30;;;;;;;11.20;9.23;;;;;;;10.16;51.76;97952.50;5134029;27;40782;-79
2023/03/06 10:38:01;;;;;;;10.93;8.67;;;;;;;10.08;51.86;97933.72;5134278;27;41718;-80
2023/03/06 10:40:40;;;;;;;11.30;8.77;;;;;;;10.08;51.78;97933.72;5133937;27;41577;-81
2023/03/06 10:43:11;;;;;;;11.07;8.00;;;;;;;10.09;51.70;97951.28;5116970;27;40397;-81
2023/03/06 10:45:47;;;;;;;12.77;9.10;;;;;;;9.76;50.81;97944.06;5148625;27;42709;-82
2023/03/06 10:48:20;;;;;;;10.60;8.47;;;;;;;9.51;51.36;97955.59;5133165;27;42901;-80
2023/03/06 10:50:48;;;;;;;11.00;9.03;;;;;;;9.08;52.14;97956.97;5117494;27;42115;-82
2023/03/06 10:53:21;;;;;;;12.83;9.00;;;;;;;8.62;53.55;97949.63;5116668;27;40572;-83
2023/03/06 10:55:55;;;;;;;9.73;8.57;;;;;;;8.24;54.92;97939.84;5130892;27;41853;-78
2023/03/06 10:58:26;;;;;;;11.70;8.83;;;;;;;7.98;56.50;97919.66;5117002;27;41729;-82
2023/03/06 11:01:07;;;;;;;13.30;9.33;;;;;;;7.81;58.20;97904.97;5131000;27;42433;-79
2023/03/06 11:03:37;;;;;;;12.03;9.20;;;;;;;7.75;58.27;97907.19;5133645;27;40430;-81
2023/03/06 11:06:11;;;;;;;10.83;8.80;;;;;;;7.65;59.23;97901.69;5133479;27;40828;-78
2023/03/06 11:08:39;;;;;;;12.07;9.70;;;;;;;7.69;60.17;97894.38;5129748;27;43457;-81
2023/03/06 11:11:09;;;;;;;12.00;9.67;;;;;;;7.89;61.50;97875.47;5133265;27;41888;-77
2023/03/06 11:13:40;;;;;;;11.77;9.00;;;;;;;8.40;61.07;97886.09;5134717;27;39803;-81
2023/03/06 11:16:18;;;;;;;15.87;10.43;;;;;;;8.88;60.37;97887.94;5131631;27;42619;-77
2023/03/06 11:18:58;;;;;;;10.67;9.50;;;;;;;9.44;59.95;97890.91;5116216;27;42760;-79
2023/03/06 11:21:29;;;;;;;11.30;9.67;;;;;;;9.89;57.33;97891.13;5130229;27;43634;-82
2023/03/06 11:24:03;;;;;;;12.83;9.33;;;;;;;10.34;56.37;97903.50;5130394;27;40965;-83
2023/03/06 11:26:38;;;;;;;10.30;8.60;;;;;;;10.49;56.80;97890.06;5115772;27;40744;-80
2023/03/06 11:29:19;;;;;;;11.87;10.20;;;;;;;10.63;55.97;97903.88;5134144;27;43119;-80
2023/03/06 11:31:51;;;;;;;11.13;9.00;;;;;;;10.57;56.02;97898.25;5130612;27;42177;-80
2023/03/06 11:34:28;;;;;;;11.70;8.77;;;;;;;10.56;55.74;97883.31;5133191;27;39093;-82
2023/03/06 11:37:01;;;;;;;11.40;9.40;;;;;;;10.63;53.12;97905.72;5132433;27;43425;-79
2023/03/06 11:39:35;;;;;;;10.73;8.83;;;;;;;10.54;52.94;97893.19;5132936;27;41631;-81
2023/03/06 11:42:11;;;;;;;12.03;9.40;;;;;;;10.57;52.55;97887.66;5148771;27;42243;-80
2023/03/06 11:44:50;;;;;;;11.87;9.47;;;;;;;10.70;51.60;97912.22;5133178;27;38445;-77
2023/03/06 11:47:23;;;;;;;10.93;9.07;;;;;;;10.83;51.04;97915.59;5132606;27;41759;-80
2023/03/06 11:49:56;;;;;;;13.33;9.83;;;;;;;11.07;50.27;97918.94;5129732;27;42907;-79
2023/03/06 11:52:41;;;;;;;12.47;8.83;;;;;;;11.13;49.68;97899.91;5115930;27;42497;-88
2023/03/06 11:55:15;;;;;;;11.57;9.03;;;;;;;11.06;48.91;97890.78;5116875;27;39009;-88
2023/03/06 11:57:52;;;;;;;10.47;8.57;;;;;;;10.60;49.01;97842.41;5116483;27;42580;-88
2023/03/06 12:00:43;;;;;;;12.03;9.03;;;;;;;10.84;48.32;97906.69;5116476;27;41950;-90
2023/03/06 12:03:55;;;;;;;11.37;9.23;;;;;;;10.82;48.34;97907.75;5116086;27;40893;-88
2023/03/06 12:06:34;;;;;;;11.47;8.73;;;;;;;10.36;48.06;97876.94;5056701;28;42132;-90
2023/03/06 12:09:43;;;;;;;10.53;8.90;;;;;;;9.81;48.17;97849.38;5062060;28;42419;-85
2023/03/06 12:12:34;;;;;;;11.63;8.93;;;;;;;9.42;49.11;97826.75;5076755;28;42008;-85
2023/03/06 12:15:41;;;;;;;9.93;8.47;;;;;;;9.82;48.80;97906.56;5070065;27;43609;-87
2023/03/06 12:18:26;;;;;;;11.13;8.33;;;;;;;9.69;48.90;97901.34;5116312;27;40318;-86
2023/03/06 12:21:03;;;;;;;10.90;8.50;;;;;;;9.42;49.41;97884.88;5116450;27;40636;-83
2023/03/06 12:24:02;;;;;;;10.93;8.90;;;;;;;9.45;48.60;97908.44;5133376;27;42345;-89
2023/03/06 12:26:51;;;;;;;10.20;8.63;;;;;;;9.45;49.88;97887.31;5116104;27;41476;-86
2023/03/06 12:29:36;;;;;;;11.80;9.40;;;;;;;9.52;50.30;97877.16;5115860;27;39279;-87
2023/03/06 12:32:15;;;;;;;13.97;9.27;;;;;;;9.41;51.13;97867.34;5130346;27;41858;-87
2023/03/06 12:35:03;;;;;;;10.87;7.47;;;;;;;9.37;53.01;97855.31;5115869;27;41788;-86
2023/03/06 12:37:42;;;;;;;9.83;7.60;;;;;;;9.31;53.27;97853.13;5116363;27;41980;-87
2023/03/06 12:40:33;;;;;;;9.37;7.80;;;;;;;9.44;53.71;97843.34;5116032;27;39015;-86
2023/03/06 12:43:28;;;;;;;9.93;8.07;;;;;;;9.56;53.95;97816.00;5116079;27;40428;-90
2023/03/06 12:46:01;;;;;;;10.23;8.33;;;;;;;9.54;53.48;97775.63;5115717;27;42645;-87
2023/03/06 12:48:34;;;;;;;9.70;8.30;;;;;;;10.38;52.49;97862.63;5115809;27;41977;-85
2023/03/06 12:51:08;;;;;;;10.33;8.17;;;;;;;10.48;52.14;97808.97;5132713;27;39073;-84
2023/03/06 12:53:37;;;;;;;11.03;8.57;;;;;;;10.44;51.50;97800.41;5115493;27;40925;-84
2023/03/06 12:56:06;;;;;;;10.37;8.33;;;;;;;10.38;52.03;97814.16;5114943;27;41790;-88
2023/03/06 12:58:49;;;;;;;10.33;8.77;;;;;;;10.33;52.21;97842.75;5115618;27;40683;-85
2023/03/06 13:01:38;;;;;;;9.07;7.60;;;;;;;10.15;53.38;97852.91;5115429;27;40067;-87
2023/03/06 13:08:01;;;;;;;9.67;8.33;;;;;;;9.44;53.58;97816.06;5084705;27;42678;-82
2023/03/06 13:10:32;;;;;;;11.60;9.33;;;;;;;9.50;54.59;97837.63;5128645;27;43378;-79
2023/03/06 13:13:01;;;;;;;11.57;9.20;;;;;;;9.37;54.62;97807.78;5114562;27;39331;-82
2023/03/06 13:15:42;;;;;;;11.67;8.90;;;;;;;9.70;55.30;97829.03;5114537;27;40518;-81
2023/03/06 13:18:45;;;;;;;12.03;9.53;;;;;;;9.62;54.52;97804.13;5110842;27;42689;-84
2023/03/06 13:21:47;;;;;;;11.53;9.37;;;;;;;9.83;53.42;97836.03;5084798;27;41332;-77
2023/03/06 13:24:19;;;;;;;12.50;9.73;;;;;;;9.57;53.59;97825.63;5130940;27;39246;-80
2023/03/06 13:26:54;;;;;;;11.93;9.60;;;;;;;9.25;53.77;97798.13;5114214;27;42093;-83
2023/03/06 13:29:58;;;;;;;11.57;8.80;;;;;;;9.30;54.32;97840.88;5113701;27;42800;-80
2023/03/06 13:32:32;;;;;;;10.20;8.63;;;;;;;9.02;54.67;97835.94;5129315;27;43231;-79
2023/03/06 13:35:00;;;;;;;13.47;9.80;;;;;;;8.80;55.63;97821.63;5115929;27;39014;-83
2023/03/06 13:37:49;;;;;;;12.53;9.20;;;;;;;8.72;55.82;97805.50;5126519;27;42169;-83
2023/03/06 13:40:31;;;;;;;13.17;9.90;;;;;;;8.97;56.12;97829.19;5124562;27;41576;-80
2023/03/06 13:43:23;;;;;;;12.63;9.77;;;;;;;9.06;55.49;97800.41;5122295;27;42076;-80
2023/03/06 13:45:51;;;;;;;11.23;9.03;;;;;;;9.68;55.05;97830.94;5110691;27;40530;-78
2023/03/06 13:48:25;;;;;;;11.90;9.73;;;;;;;10.46;54.50;97832.91;5114047;27;40631;-80
2023/03/06 13:50:54;;;;;;;11.27;9.03;;;;;;;11.40;52.01;97845.63;5116372;27;43247;-81
2023/03/06 13:53:51;;;;;;;11.33;8.37;;;;;;;12.23;50.52;97829.84;5129030;27;42070;-80
2023/03/06 13:56:58;;;;;;;11.03;9.27;;;;;;;13.20;48.25;97858.47;5133686;27;40929;-79
2023/03/06 14:00:26;;;;;;;11.30;8.93;;;;;;;14.06;46.18;97866.66;5129424;27;42480;-77
2023/03/06 14:03:39;;;;;;;10.83;8.40;;;;;;;14.01;45.18;97870.56;5035227;28;42971;-82
2023/03/06 14:06:41;;;;;;;11.83;8.80;;;;;;;13.32;44.37;97871.66;5038478;28;40836;-83
2023/03/06 14:09:16;;;;;;;11.77;8.77;;;;;;;13.14;44.70;97876.75;5103388;27;39230;-84
2023/03/06 14:11:52;;;;;;;10.63;8.50;;;;;;;12.99;44.84;97868.31;5110325;27;41726;-79
2023/03/06 14:14:32;;;;;;;10.37;8.80;;;;;;;12.56;44.49;97856.13;5131158;27;42738;-82
2023/03/06 14:17:01;;;;;;;9.50;8.37;;;;;;;12.19;44.60;97865.56;5114199;27;41432;-84
2023/03/06 14:19:33;;;;;;;11.47;9.33;;;;;;;12.07;45.81;97861.28;5112870;27;39006;-82
2023/03/06 14:22:03;;;;;;;10.83;9.00;;;;;;;12.19;44.99;97863.75;5125442;27;41667;-78
2023/03/06 14:24:36;;;;;;;11.03;8.67;;;;;;;12.14;45.95;97852.66;5111633;27;41721;-78
2023/03/06 14:27:04;;;;;;;10.63;8.50;;;;;;;12.44;45.04;97854.53;5127239;27;43229;-78
2023/03/06 14:29:34;;;;;;;10.13;8.80;;;;;;;12.54;44.50;97855.41;5128477;27;39901;-80
2023/03/06 14:32:04;;;;;;;11.90;8.73;;;;;;;12.64;44.32;97833.34;5115489;27;40716;-80
2023/03/06 14:34:39;;;;;;;11.33;8.53;;;;;;;12.90;43.12;97858.50;5111687;27;42105;-80
2023/03/06 14:37:19;;;;;;;9.53;8.00;;;;;;;12.61;43.22;97855.72;5109085;27;42540;-79
2023/03/06 14:39:47;;;;;;;9.73;8.73;;;;;;;12.31;43.22;97853.91;5111956;27;38910;-78
2023/03/06 14:42:22;;;;;;;10.13;8.33;;;;;;;12.07;42.71;97861.28;5114878;27;41413;-79
2023/03/06 14:45:02;;;;;;;9.83;8.03;;;;;;;11.73;43.07;97829.59;5124804;27;43247;-79
2023/03/06 14:47:33;;;;;;;9.97;8.07;;;;;;;11.60;43.96;97836.06;5112631;27;41983;-79
2023/03/06 14:50:22;;;;;;;10.97;7.27;;;;;;;11.27;44.05;97818.44;5130353;27;41769;-77
2023/03/06 14:52:52;;;;;;;11.50;9.03;;;;;;;11.14;44.18;97840.66;5124080;27;42192;-79
2023/03/06 14:55:22;;;;;;;10.93;8.53;;;;;;;10.87;44.20;97836.75;5115544;27;42947;-77
2023/03/06 14:57:55;;;;;;;10.00;7.77;;;;;;;10.60;45.07;97818.59;5120693;27;43551;-78
2023/03/06 15:00:29;;;;;;;8.83;7.67;;;;;;;10.65;45.43;97827.84;5121376;27;40108;-77
2023/03/06 15:02:57;;;;;;;11.30;8.60;;;;;;;10.65;45.43;97821.69;5125926;27;41618;-78
2023/03/06 15:05:29;;;;;;;8.03;7.10;;;;;;;10.61;45.41;97825.56;5131915;27;42653;-80
2023/03/06 15:08:01;;;;;;;10.20;7.57;;;;;;;10.47;45.33;97834.59;5127499;27;41537;-77
2023/03/06 15:10:31;;;;;;;9.70;7.40;;;;;;;10.28;45.39;97819.28;5116435;27;38878;-79
2023/03/06 15:13:08;;;;;;;10.30;7.50;;;;;;;10.31;45.72;97832.28;5132805;27;41719;-78
2023/03/06 15:15:37;;;;;;;10.20;7.77;;;;;;;10.21;45.55;97828.69;5116068;27;41661;-79
2023/03/06 15:18:27;;;;;;;9.53;7.90;;;;;;;10.13;46.17;97830.22;5132947;27;43325;-81
2023/03/06 15:21:06;;;;;;;9.00;8.00;;;;;;;9.91;46.06;97823.06;5133475;27;38961;-83
2023/03/06 15:23:37;;;;;;;9.57;7.83;;;;;;;9.69;45.59;97811.47;5130119;27;41940;-79
2023/03/06 15:26:21;;;;;;;9.50;7.67;;;;;;;9.64;46.40;97837.41;5134715;27;42381;-78
2023/03/06 15:28:55;;;;;;;9.63;8.63;;;;;;;9.53;46.88;97840.00;5133075;27;41547;-80
2023/03/06 15:31:29;;;;;;;9.23;7.87;;;;;;;9.39;47.52;97834.94;5131277;27;40026;-80
2023/03/06 15:34:02;;;;;;;10.57;7.73;;;;;;;9.34;48.84;97823.84;5129420;27;41669;-79
2023/03/06 15:36:32;;;;;;;11.10;8.50;;;;;;;9.25;49.77;97814.81;5132188;27;42817;-79
2023/03/06 15:39:00;;;;;;;11.17;8.20;;;;;;;9.18;50.14;97810.06;5115429;27;42626;-80
2023/03/06 15:41:33;;;;;;;11.00;7.80;;;;;;;9.10;50.73;97809.78;5132738;27;40044;-78
2023/03/06 15:44:03;;;;;;;10.53;8.27;;;;;;;8.94;51.29;97786.31;5132744;27;40491;-82
2023/03/06 15:46:32;;;;;;;10.10;7.97;;;;;;;8.96;51.31;97795.81;5114751;27;41814;-79
2023/03/06 15:49:02;;;;;;;12.37;8.57;;;;;;;9.02;51.35;97805.91;5129359;27;42488;-80
2023/03/06 15:51:31;;;;;;;12.43;9.10;;;;;;;9.01;51.86;97800.75;5132256;27;41058;-82
2023/03/06 15:53:59;;;;;;;9.60;7.93;;;;;;;8.96;51.92;97789.69;5114976;27;42120;-78
2023/03/06 15:56:29;;;;;;;11.70;8.43;;;;;;;8.98;51.87;97801.81;5133073;27;43001;-79
2023/03/06 15:58:59;;;;;;;10.93;8.07;;;;;;;8.91;51.99;97797.91;5132542;27;42178;-78
2023/03/06 16:01:27;;;;;;;10.63;9.53;;;;;;;8.77;51.03;97805.19;5132204;27;39727;-80
2023/03/06 16:03:56;;;;;;;10.60;8.97;;;;;;;8.22;51.29;97741.31;5132128;27;43242;-78
2023/03/06 16:06:24;;;;;;;12.40;8.87;;;;;;;8.39;51.49;97787.63;5133246;27;42638;-79
2023/03/06 16:08:53;;;;;;;11.10;8.30;;;;;;;8.41;51.27;97808.59;5114401;27;42468;-78
2023/03/06 16:11:27;;;;;;;10.07;8.97;;;;;;;8.29;51.31;97805.84;5131318;27;41545;-77
2023/03/06 16:13:57;;;;;;;10.87;8.67;;;;;;;8.18;51.56;97797.84;5129932;27;42456;-77
2023/03/06 16:16:30;;;;;;;11.53;8.83;;;;;;;8.02;52.04;97776.16;5114308;27;41953;-77
2023/03/06 16:23:09;;;;;;;10.53;8.07;;;;;;;7.89;52.26;97796.41;5126415;27;39132;-77
2023/03/06 16:25:38;;;;;;;12.10;8.80;;;;;;;7.84;52.67;97795.84;5128802;27;41505;-76
2023/03/06 16:28:09;;;;;;;12.17;9.43;;;;;;;7.78;52.28;97802.41;5130879;27;42672;-76
2023/03/06 16:30:38;;;;;;;11.17;9.07;;;;;;;7.71;52.37;97800.28;5114055;27;42440;-77
2023/03/06 16:33:06;;;;;;;11.93;9.23;;;;;;;7.60;52.96;97794.88;5131666;27;40031;-77
2023/03/06 16:35:33;;;;;;;10.80;8.50;;;;;;;7.41;52.98;97772.44;5114850;27;41955;-78
2023/03/06 16:38:01;;;;;;;12.37;9.43;;;;;;;7.49;53.36;97796.47;5131844;27;41770;-78
2023/03/06 16:40:36;;;;;;;9.40;8.23;;;;;;;7.48;53.17;97801.81;5131955;27;41472;-79
2023/03/06 16:43:04;;;;;;;12.00;8.47;;;;;;;7.35;53.32;97785.16;5129798;27;40005;-79
2023/03/06 16:45:36;;;;;;;11.37;8.63;;;;;;;7.42;53.68;97803.06;5132037;27;40912;-76
2023/03/06 16:48:04;;;;;;;11.17;8.37;;;;;;;7.36;53.41;97808.75;5130443;27;43302;-78
2023/03/06 16:50:34;;;;;;;10.67;7.90;;;;;;;7.35;53.44;97801.78;5132983;27;42085;-76
2023/03/06 16:53:01;;;;;;;9.47;8.17;;;;;;;7.30;53.63;97808.28;5113758;27;40259;-77
2023/03/06 16:55:30;;;;;;;10.03;7.93;;;;;;;7.22;53.42;97799.13;5131415;27;41170;-76
2023/03/06 16:57:58;;;;;;;9.63;7.53;;;;;;;7.13;53.94;97801.53;5131271;27;43240;-81
2023/03/06 17:00:28;;;;;;;10.40;7.27;;;;;;;7.06;53.52;97801.06;5114602;27;41244;-80
2023/03/06 17:02:55;;;;;;;9.73;7.40;;;;;;;6.84;54.61;97785.81;5114496;27;38987;-81
2023/03/06 17:05:23;;;;;;;9.10;7.00;;;;;;;6.87;54.55;97803.22;5114774;27;41799;-81
2023/03/06 17:07:50;;;;;;;13.87;9.37;;;;;;;6.83;54.96;97794.66;5131329;27;41413;-82
2023/03/06 17:10:21;;;;;;;11.87;9.27;;;;;;;6.77;55.23;97805.59;5135318;27;43203;-80
2023/03/06 17:12:50;;;;;;;10.17;8.07;;;;;;;6.71;55.45;97805.13;5118128;27;40172;-81
2023/03/06 17:15:18;;;;;;;10.63;8.07;;;;;;;6.52;55.95;97786.22;5118641;27;41759;-83
2023/03/06 17:17:46;;;;;;;9.27;7.70;;;;;;;6.53;56.75;97803.69;5119228;27;43264;-83
2023/03/06 17:20:13;;;;;;;9.90;7.53;;;;;;;6.42;56.65;97791.22;5143880;27;43013;-83
2023/03/06 17:22:41;;;;;;;10.83;8.03;;;;;;;6.47;56.99;97807.53;5140865;27;39905;-82
2023/03/06 17:25:09;;;;;;;8.83;7.40;;;;;;;6.32;57.18;97797.97;5147983;27;42282;-82
2023/03/06 17:27:38;;;;;;;10.97;8.37;;;;;;;6.40;57.22;97811.50;5153294;27;43268;-80
2023/03/06 17:30:10;;;;;;;10.40;8.23;;;;;;;6.35;57.88;97813.56;5153920;27;43238;-81
2023/03/06 17:32:39;;;;;;;10.13;8.13;;;;;;;6.32;57.95;97809.31;5151651;27;41312;-82
2023/03/06 17:35:09;;;;;;;10.83;9.10;;;;;;;6.31;58.08;97809.41;5155103;27;41734;-81
2023/03/06 17:37:37;;;;;;;11.23;8.40;;;;;;;6.28;58.51;97807.00;5120756;27;41540;-81
2023/03/06 17:40:08;;;;;;;9.63;7.80;;;;;;;6.16;58.70;97791.97;5118533;27;41219;-82
2023/03/06 17:42:36;;;;;;;11.27;9.00;;;;;;;6.21;58.46;97809.13;5117935;27;39913;-81
2023/03/06 17:45:05;;;;;;;11.33;8.40;;;;;;;6.11;59.04;97797.50;5135659;27;41653;-81
2023/03/06 17:47:34;;;;;;;11.33;8.60;;;;;;;6.03;59.59;97790.09;5117479;27;41901;-82
2023/03/06 17:50:02;;;;;;;11.83;9.17;;;;;;;5.97;60.08;97787.84;5118451;27;43589;-83
2023/03/06 17:52:30;;;;;;;12.33;9.67;;;;;;;6.02;60.55;97801.56;5134604;27;39369;-84
2023/03/06 17:54:58;;;;;;;13.70;9.57;;;;;;;5.98;61.14;97807.91;5135649;27;42096;-84
2023/03/06 17:57:26;;;;;;;11.67;9.50;;;;;;;5.89;61.28;97800.59;5117865;27;43234;-84
2023/03/06 17:59:55;;;;;;;10.87;8.70;;;;;;;5.48;61.41;97749.69;5118304;27;41596;-86
2023/03/06 18:02:23;;;;;;;12.23;9.83;;;;;;;5.61;62.09;97766.38;5117830;27;40189;-86
2023/03/06 18:04:52;;;;;;;13.67;9.57;;;;;;;5.67;62.13;97774.75;5118748;27;42128;-86
2023/03/06 18:07:20;;;;;;;13.10;9.33;;;;;;;5.65;62.83;97778.41;5110430;27;41842;-82
2023/03/06 18:09:48;;;;;;;10.37;8.77;;;;;;;5.61;63.06;97784.78;5117933;27;41056;-86
2023/03/06 18:12:16;;;;;;;12.30;9.97;;;;;;;5.52;63.10;97772.19;5134954;27;40747;-87
2023/03/06 18:14:45;;;;;;;11.43;8.67;;;;;;;5.61;63.28;97800.53;5118783;27;41633;-86
2023/03/06 18:17:13;;;;;;;12.57;9.60;;;;;;;5.47;62.73;97790.00;5101504;27;42905;-84
2023/03/06 18:19:41;;;;;;;13.50;10.30;;;;;;;5.42;63.27;97779.78;5134958;27;40897;-88
2023/03/06 18:22:10;;;;;;;12.20;9.20;;;;;;;5.40;63.51;97787.75;5134807;27;41323;-88
2023/03/06 18:24:38;;;;;;;19.13;12.23;;;;;;;5.49;63.76;97809.13;5117726;27;41715;-90
2023/03/06 18:27:06;;;;;;;14.13;10.67;;;;;;;5.48;63.85;97804.81;5134019;27;41585;-83
2023/03/06 18:29:34;;;;;;;15.27;10.50;;;;;;;5.47;64.36;97800.50;5117821;27;42390;-88
2023/03/06 18:32:01;;;;;;;12.83;10.13;;;;;;;5.49;64.34;97807.34;5116344;27;41037;-79
2023/03/06 18:34:29;;;;;;;13.87;10.23;;;;;;;5.37;64.57;97777.41;5134431;27;42215;-81
2023/03/06 18:36:57;;;;;;;14.37;10.50;;;;;;;5.42;64.43;97782.41;5134792;27;42721;-81
2023/03/06 18:39:26;;;;;;;13.23;9.20;;;;;;;5.54;64.28;97802.69;5135692;27;42161;-80
2023/03/06 18:41:55;;;;;;;13.50;9.20;;;;;;;5.57;64.43;97805.09;5134762;27;40000;-81
2023/03/06 18:44:23;;;;;;;13.67;10.33;;;;;;;5.59;64.05;97807.66;5117448;27;40483;-81
2023/03/06 18:46:51;;;;;;;12.20;10.17;;;;;;;5.58;64.50;97803.31;5115921;27;41915;-80
2023/03/06 18:49:18;;;;;;;13.43;9.80;;;;;;;5.55;64.45;97799.13;5134111;27;42261;-80
2023/03/06 18:51:47;;;;;;;11.43;9.50;;;;;;;5.53;64.37;97795.75;5133630;27;40604;-80
2023/03/06 18:54:14;;;;;;;12.87;9.70;;;;;;;5.54;64.16;97799.22;5135373;27;41856;-82
2023/03/06 18:56:44;;;;;;;12.87;10.57;;;;;;;5.53;64.39;97802.78;5133338;27;43131;-80
2023/03/06 18:59:14;;;;;;;13.27;10.13;;;;;;;5.36;63.85;97775.72;5133912;27;41225;-80
2023/03/06 19:01:44;;;;;;;14.63;10.67;;;;;;;5.29;64.42;97770.94;5133631;27;39727;-81
2023/03/06 19:04:11;;;;;;;13.83;10.47;;;;;;;5.39;64.62;97786.03;5116794;27;41549;-81
2023/03/06 19:06:40;;;;;;;13.80;10.27;;;;;;;5.47;64.55;97803.97;5115891;27;41651;-80
2023/03/06 19:09:10;;;;;;;12.83;9.73;;;;;;;5.47;64.32;97792.63;5133980;27;41181;-80
2023/03/06 19:11:38;;;;;;;13.10;10.10;;;;;;;5.35;64.40;97774.03;5133186;27;40751;-81
2023/03/06 19:14:08;;;;;;;16.30;10.40;;;;;;;5.45;64.16;97790.06;5134127;27;40610;-80
2023/03/06 19:16:35;;;;;;;13.67;11.30;;;;;;;5.34;64.49;97772.34;5133220;27;42782;-80
2023/03/06 19:19:03;;;;;;;13.73;11.23;;;;;;;5.45;64.20;97789.22;5116917;27;41318;-80
2023/03/06 19:21:31;;;;;;;13.97;11.43;;;;;;;5.45;64.50;97789.22;5134329;27;39963;-79
2023/03/06 19:23:59;;;;;;;15.23;10.97;;;;;;;5.30;64.74;97770.84;5116360;27;40750;-80
2023/03/06 19:26:28;;;;;;;13.50;10.87;;;;;;;5.13;64.68;97742.09;5115842;27;41746;-79
2023/03/06 19:28:56;;;;;;;14.97;10.87;;;;;;;5.44;64.52;97793.63;5116501;27;41222;-81
2023/03/06 19:31:27;;;;;;;16.87;12.53;;;;;;;5.28;64.83;97775.34;5115075;27;39082;-80
2023/03/06 19:33:56;;;;;;;14.43;11.60;;;;;;;5.40;64.74;97786.91;5116227;27;40950;-80
2023/03/06 19:36:29;;;;;;;15.47;11.47;;;;;;;5.32;64.60;97778.59;5132586;27;43609;-80
2023/03/06 19:38:58;;;;;;;14.20;11.53;;;;;;;5.32;64.27;97787.31;5116057;27;41057;-82
2023/03/06 19:41:27;;;;;;;15.20;11.67;;;;;;;5.34;64.41;97790.72;5115725;27;39056;-82
2023/03/06 19:43:57;;;;;;;14.17;10.80;;;;;;;5.43;64.79;97801.63;5134412;27;42356;-80
2023/03/06 19:46:27;;;;;;;14.20;11.07;;;;;;;5.41;65.00;97789.44;5132395;27;43422;-80
2023/03/06 19:48:56;;;;;;;14.53;11.03;;;;;;;5.39;64.96;97782.56;5114916;27;41139;-82
2023/03/06 19:51:24;;;;;;;17.00;11.90;;;;;;;5.34;64.71;97777.59;5132185;27;40608;-81
2023/03/06 19:53:53;;;;;;;15.40;10.83;;;;;;;5.45;64.46;97789.22;5140892;27;41682;-82
2023/03/06 19:56:22;;;;;;;14.23;11.07;;;;;;;5.40;64.74;97787.75;5138518;27;41763;-83
2023/03/06 19:58:51;;;;;;;13.60;10.77;;;;;;;5.43;64.97;97784.09;5132408;27;41760;-82
2023/03/06 20:01:20;;;;;;;16.43;11.63;;;;;;;5.43;65.05;97781.47;5125731;27;39903;-81
2023/03/06 20:03:50;;;;;;;14.53;10.37;;;;;;;5.29;65.00;97774.41;5106446;27;40794;-82
2023/03/06 20:06:21;;;;;;;15.27;11.13;;;;;;;5.01;65.07;97721.84;5124072;27;42467;-81
2023/03/06 20:08:48;;;;;;;13.63;10.20;;;;;;;5.30;65.30;97773.47;5109673;27;41256;-82
2023/03/06 20:11:17;;;;;;;12.60;9.57;;;;;;;5.35;65.67;97789.78;5106249;27;38766;-84
2023/03/06 20:13:45;;;;;;;17.33;9.70;;;;;;;5.30;65.32;97778.72;5114904;27;40891;-83
2023/03/06 20:16:13;;;;;;;14.33;10.30;;;;;;;5.26;65.67;97769.31;5110265;27;43351;-82
2023/03/06 20:18:41;;;;;;;16.20;11.97;;;;;;;5.35;65.89;97783.69;5105730;27;41976;-83
2023/03/06 20:21:11;;;;;;;14.37;10.40;;;;;;;5.36;65.89;97785.38;5110328;27;39758;-81
2023/03/06 20:23:39;;;;;;;14.40;9.73;;;;;;;5.26;65.61;97766.69;5110736;27;41279;-81
2023/03/06 20:26:09;;;;;;;12.73;9.97;;;;;;;5.34;65.79;97776.75;5113562;27;43014;-81
2023/03/06 20:28:38;;;;;;;15.70;10.23;;;;;;;5.20;66.32;97767.03;5114661;27;42483;-82
2023/03/06 20:31:07;;;;;;;14.47;10.80;;;;;;;5.22;66.17;97770.44;5109611;27;39394;-82
2023/03/06 20:33:35;;;;;;;14.07;10.23;;;;;;;5.30;66.13;97783.97;5122560;27;41685;-83
2023/03/06 20:36:03;;;;;;;14.80;10.60;;;;;;;5.28;65.96;97782.38;5107851;27;41642;-81
2023/03/06 20:38:32;;;;;;;13.90;10.20;;;;;;;5.07;65.81;97745.06;5130918;27;42112;-81
2023/03/06 20:41:00;;;;;;;12.83;10.07;;;;;;;5.29;65.72;97782.28;5119343;27;39893;-81
2023/03/06 20:43:28;;;;;;;13.17;9.80;;;;;;;5.29;65.38;97777.03;5124977;27;42449;-81
2023/03/06 20:45:57;;;;;;;17.33;10.63;;;;;;;5.29;65.90;97786.69;5103001;27;43139;-82
2023/03/06 20:48:25;;;;;;;13.53;10.23;;;;;;;5.26;65.80;97779.81;5109660;27;42228;-81
2023/03/06 20:51:01;;;;;;;16.43;11.13;;;;;;;5.23;65.56;97777.38;5124051;27;40432;-80
2023/03/06 20:53:29;;;;;;;13.43;10.20;;;;;;;5.08;64.96;97762.50;5106785;27;41772;-81